sensor_id;sensor_type;location;lat;lon;timestamp;P1;durP1;ratioP1;P2;durP2;ratioP2
65764;SDS011;52915;53.718;19.946;2023-04-24T00:00:04;24.80;;;12.10;;
65764;SDS011;52915;53.718;19.946;2023-04-24T00:05:29;18.80;;;12.00;;
65764;SDS011;52915;53.718;19.946;2023-04-24T00:10:32;20.20;;;10.80;;
65764;SDS011;52915;53.718;19.946;2023-04-24T00:15:36;15.10;;;11.00;;
65764;SDS011;52915;53.718;19.946;2023-04-24T00:20:39;23.40;;;11.60;;
65764;SDS011;52915;53.718;19.946;2023-04-24T00:25:43;25.70;;;11.90;;
65764;SDS011;52915;53.718;19.946;2023-04-24T00:30:47;18.00;;;10.10;;
65764;SDS011;52915;53.718;19.946;2023-04-24T00:35:51;18.40;;;10.20;;
65764;SDS011;52915;53.718;19.946;2023-04-24T00:40:54;25.60;;;9.90;;
65764;SDS011;52915;53.718;19.946;2023-04-24T00:45:58;19.70;;;10.50;;
65764;SDS011;52915;53.718;19.946;2023-04-24T00:51:03;17.30;;;10.10;;
65764;SDS011;52915;53.718;19.946;2023-04-24T00:56:10;17.00;;;9.30;;
65764;SDS011;52915;53.718;19.946;2023-04-24T01:01:14;12.40;;;8.20;;
65764;SDS011;52915;53.718;19.946;2023-04-24T01:06:19;14.90;;;9.40;;
65764;SDS011;52915;53.718;19.946;2023-04-24T01:11:24;14.70;;;10.70;;
65764;SDS011;52915;53.718;19.946;2023-04-24T01:16:28;14.70;;;9.60;;
65764;SDS011;52915;53.718;19.946;2023-04-24T01:21:36;13.30;;;9.50;;
65764;SDS011;52915;53.718;19.946;2023-04-24T01:34:02;14.80;;;8.90;;
65764;SDS011;52915;53.718;19.946;2023-04-24T01:39:06;17.00;;;10.40;;
65764;SDS011;52915;53.718;19.946;2023-04-24T01:44:10;14.60;;;10.00;;
65764;SDS011;52915;53.718;19.946;2023-04-24T01:49:32;19.40;;;9.00;;
65764;SDS011;52915;53.718;19.946;2023-04-24T01:54:37;14.30;;;8.90;;
65764;SDS011;52915;53.718;19.946;2023-04-24T01:59:53;23.40;;;11.80;;
65764;SDS011;52915;53.718;19.946;2023-04-24T02:04:57;19.00;;;9.40;;
65764;SDS011;52915;53.718;19.946;2023-04-24T02:10:00;15.80;;;9.20;;
65764;SDS011;52915;53.718;19.946;2023-04-24T02:15:05;21.20;;;10.50;;
65764;SDS011;52915;53.718;19.946;2023-04-24T02:20:09;30.50;;;13.30;;
65764;SDS011;52915;53.718;19.946;2023-04-24T02:31:08;23.70;;;11.80;;
65764;SDS011;52915;53.718;19.946;2023-04-24T02:36:12;15.70;;;11.60;;
65764;SDS011;52915;53.718;19.946;2023-04-24T02:41:16;20.50;;;12.30;;
65764;SDS011;52915;53.718;19.946;2023-04-24T02:46:19;20.00;;;14.30;;
65764;SDS011;52915;53.718;19.946;2023-04-24T02:51:23;37.10;;;15.50;;
65764;SDS011;52915;53.718;19.946;2023-04-24T02:56:27;34.20;;;18.00;;
65764;SDS011;52915;53.718;19.946;2023-04-24T03:02:02;32.10;;;14.80;;
65764;SDS011;52915;53.718;19.946;2023-04-24T03:07:05;19.10;;;13.00;;
65764;SDS011;52915;53.718;19.946;2023-04-24T03:12:10;27.40;;;12.30;;
65764;SDS011;52915;53.718;19.946;2023-04-24T03:17:13;22.80;;;11.80;;
65764;SDS011;52915;53.718;19.946;2023-04-24T03:22:17;23.10;;;11.60;;
65764;SDS011;52915;53.718;19.946;2023-04-24T03:27:46;20.70;;;11.80;;
65764;SDS011;52915;53.718;19.946;2023-04-24T03:32:49;19.10;;;10.00;;
65764;SDS011;52915;53.718;19.946;2023-04-24T03:37:53;19.20;;;10.60;;
65764;SDS011;52915;53.718;19.946;2023-04-24T03:42:57;15.30;;;10.00;;
65764;SDS011;52915;53.718;19.946;2023-04-24T03:48:01;17.10;;;10.10;;
65764;SDS011;52915;53.718;19.946;2023-04-24T03:53:04;14.50;;;10.40;;
65764;SDS011;52915;53.718;19.946;2023-04-24T03:58:08;15.60;;;10.30;;
65764;SDS011;52915;53.718;19.946;2023-04-24T04:17:42;15.40;;;8.50;;
65764;SDS011;52915;53.718;19.946;2023-04-24T04:28:39;21.60;;;9.80;;
65764;SDS011;52915;53.718;19.946;2023-04-24T04:33:44;23.80;;;10.40;;
65764;SDS011;52915;53.718;19.946;2023-04-24T04:38:47;18.40;;;10.00;;
65764;SDS011;52915;53.718;19.946;2023-04-24T04:43:53;17.20;;;11.60;;
65764;SDS011;52915;53.718;19.946;2023-04-24T04:48:57;19.70;;;10.20;;
65764;SDS011;52915;53.718;19.946;2023-04-24T04:54:01;14.20;;;7.80;;
65764;SDS011;52915;53.718;19.946;2023-04-24T04:59:05;28.60;;;11.40;;
65764;SDS011;52915;53.718;19.946;2023-04-24T05:18:29;26.60;;;12.10;;
65764;SDS011;52915;53.718;19.946;2023-04-24T05:23:59;33.40;;;13.50;;
65764;SDS011;52915;53.718;19.946;2023-04-24T05:35:53;17.00;;;10.30;;
65764;SDS011;52915;53.718;19.946;2023-04-24T05:41:22;28.80;;;12.10;;
65764;SDS011;52915;53.718;19.946;2023-04-24T05:52:43;10.10;;;8.10;;
65764;SDS011;52915;53.718;19.946;2023-04-24T06:04:37;23.90;;;12.20;;
65764;SDS011;52915;53.718;19.946;2023-04-24T06:10:06;18.00;;;11.10;;
65764;SDS011;52915;53.718;19.946;2023-04-24T06:28:19;14.00;;;10.80;;
65764;SDS011;52915;53.718;19.946;2023-04-24T06:33:23;20.70;;;11.90;;
65764;SDS011;52915;53.718;19.946;2023-04-24T06:38:29;17.10;;;9.50;;
65764;SDS011;52915;53.718;19.946;2023-04-24T06:43:33;17.00;;;8.40;;
65764;SDS011;52915;53.718;19.946;2023-04-24T06:55:43;5.70;;;5.20;;
65764;SDS011;52915;53.718;19.946;2023-04-24T07:32:21;12.70;;;6.00;;
65764;SDS011;52915;53.718;19.946;2023-04-24T07:45:11;15.20;;;9.60;;
65764;SDS011;52915;53.718;19.946;2023-04-24T07:50:15;12.90;;;8.70;;
65764;SDS011;52915;53.718;19.946;2023-04-24T07:55:18;20.10;;;11.30;;
65764;SDS011;52915;53.718;19.946;2023-04-24T08:00:47;13.30;;;6.80;;
65764;SDS011;52915;53.718;19.946;2023-04-24T08:41:10;17.20;;;7.60;;
65764;SDS011;52915;53.718;19.946;2023-04-24T08:59:54;13.70;;;7.20;;
65764;SDS011;52915;53.718;19.946;2023-04-24T09:31:39;6.10;;;5.10;;
65764;SDS011;52915;53.718;19.946;2023-04-24T09:36:51;8.50;;;5.00;;
65764;SDS011;52915;53.718;19.946;2023-04-24T09:49:23;14.40;;;5.60;;
65764;SDS011;52915;53.718;19.946;2023-04-24T09:54:36;10.70;;;5.20;;
65764;SDS011;52915;53.718;19.946;2023-04-24T10:00:09;7.70;;;5.40;;
65764;SDS011;52915;53.718;19.946;2023-04-24T10:31:37;7.00;;;6.20;;
65764;SDS011;52915;53.718;19.946;2023-04-24T10:43:33;8.50;;;4.70;;
65764;SDS011;52915;53.718;19.946;2023-04-24T10:56:17;11.30;;;5.50;;
65764;SDS011;52915;53.718;19.946;2023-04-24T11:21:10;9.80;;;5.10;;
65764;SDS011;52915;53.718;19.946;2023-04-24T11:26:21;6.90;;;5.40;;
65764;SDS011;52915;53.718;19.946;2023-04-24T11:31:34;10.90;;;6.30;;
65764;SDS011;52915;53.718;19.946;2023-04-24T11:57:06;11.60;;;6.70;;
65764;SDS011;52915;53.718;19.946;2023-04-24T12:02:23;10.70;;;6.80;;
65764;SDS011;52915;53.718;19.946;2023-04-24T12:14:48;15.60;;;8.00;;
65764;SDS011;52915;53.718;19.946;2023-04-24T12:33:21;15.10;;;9.60;;
65764;SDS011;52915;53.718;19.946;2023-04-24T12:59:10;15.20;;;9.00;;
65764;SDS011;52915;53.718;19.946;2023-04-24T13:04:20;18.10;;;9.10;;
65764;SDS011;52915;53.718;19.946;2023-04-24T13:30:55;11.70;;;6.50;;
65764;SDS011;52915;53.718;19.946;2023-04-24T13:47:18;8.70;;;5.50;;
65764;SDS011;52915;53.718;19.946;2023-04-24T13:52:25;22.00;;;8.40;;
65764;SDS011;52915;53.718;19.946;2023-04-24T13:57:35;22.10;;;6.90;;
65764;SDS011;52915;53.718;19.946;2023-04-24T14:02:41;7.50;;;4.90;;
65764;SDS011;52915;53.718;19.946;2023-04-24T14:14:07;6.10;;;4.80;;
65764;SDS011;52915;53.718;19.946;2023-04-24T14:19:14;12.60;;;5.80;;
65764;SDS011;52915;53.718;19.946;2023-04-24T14:30:52;11.40;;;4.90;;
65764;SDS011;52915;53.718;19.946;2023-04-24T14:36:25;9.00;;;5.30;;
65764;SDS011;52915;53.718;19.946;2023-04-24T15:00:52;9.00;;;6.20;;
65764;SDS011;52915;53.718;19.946;2023-04-24T15:05:57;8.60;;;4.80;;
65764;SDS011;52915;53.718;19.946;2023-04-24T15:16:55;8.80;;;4.20;;
65764;SDS011;52915;53.718;19.946;2023-04-24T15:22:02;5.60;;;4.50;;
65764;SDS011;52915;53.718;19.946;2023-04-24T15:27:16;7.40;;;5.00;;
65764;SDS011;52915;53.718;19.946;2023-04-24T15:32:30;12.90;;;5.00;;
65764;SDS011;52915;53.718;19.946;2023-04-24T15:37:42;9.50;;;4.60;;
65764;SDS011;52915;53.718;19.946;2023-04-24T15:42:56;5.80;;;4.60;;
65764;SDS011;52915;53.718;19.946;2023-04-24T15:48:00;4.80;;;4.30;;
65764;SDS011;52915;53.718;19.946;2023-04-24T16:07:47;5.30;;;4.70;;
65764;SDS011;52915;53.718;19.946;2023-04-24T16:13:14;9.10;;;5.80;;
65764;SDS011;52915;53.718;19.946;2023-04-24T16:18:20;9.10;;;4.60;;
65764;SDS011;52915;53.718;19.946;2023-04-24T16:23:25;9.50;;;6.20;;
65764;SDS011;52915;53.718;19.946;2023-04-24T16:35:06;6.00;;;5.10;;
65764;SDS011;52915;53.718;19.946;2023-04-24T16:40:10;6.10;;;5.10;;
65764;SDS011;52915;53.718;19.946;2023-04-24T16:45:19;5.70;;;4.50;;
65764;SDS011;52915;53.718;19.946;2023-04-24T16:50:42;5.10;;;4.40;;
65764;SDS011;52915;53.718;19.946;2023-04-24T16:55:45;4.90;;;4.40;;
65764;SDS011;52915;53.718;19.946;2023-04-24T17:00:52;10.70;;;5.90;;
65764;SDS011;52915;53.718;19.946;2023-04-24T17:06:21;14.50;;;11.20;;
65764;SDS011;52915;53.718;19.946;2023-04-24T17:11:40;9.10;;;7.50;;
65764;SDS011;52915;53.718;19.946;2023-04-24T17:17:10;16.40;;;12.50;;
65764;SDS011;52915;53.718;19.946;2023-04-24T17:22:14;15.60;;;9.00;;
65764;SDS011;52915;53.718;19.946;2023-04-24T17:34:39;7.20;;;5.90;;
65764;SDS011;52915;53.718;19.946;2023-04-24T17:39:50;6.50;;;5.80;;
65764;SDS011;52915;53.718;19.946;2023-04-24T17:51:17;19.30;;;12.10;;
65764;SDS011;52915;53.718;19.946;2023-04-24T17:56:23;35.70;;;19.90;;
65764;SDS011;52915;53.718;19.946;2023-04-24T18:01:29;39.10;;;22.50;;
65764;SDS011;52915;53.718;19.946;2023-04-24T18:13:41;26.50;;;16.20;;
65764;SDS011;52915;53.718;19.946;2023-04-24T18:18:45;17.60;;;11.30;;
65764;SDS011;52915;53.718;19.946;2023-04-24T18:23:51;21.30;;;11.40;;
65764;SDS011;52915;53.718;19.946;2023-04-24T18:29:04;15.70;;;10.10;;
65764;SDS011;52915;53.718;19.946;2023-04-24T18:34:08;11.90;;;9.00;;
65764;SDS011;52915;53.718;19.946;2023-04-24T18:39:14;10.60;;;8.00;;
65764;SDS011;52915;53.718;19.946;2023-04-24T18:44:41;13.30;;;8.10;;
65764;SDS011;52915;53.718;19.946;2023-04-24T18:49:45;36.00;;;17.90;;
65764;SDS011;52915;53.718;19.946;2023-04-24T18:54:49;17.80;;;11.40;;
65764;SDS011;52915;53.718;19.946;2023-04-24T18:59:52;13.70;;;9.00;;
65764;SDS011;52915;53.718;19.946;2023-04-24T19:04:56;21.90;;;11.40;;
65764;SDS011;52915;53.718;19.946;2023-04-24T19:10:00;30.20;;;14.50;;
65764;SDS011;52915;53.718;19.946;2023-04-24T19:15:05;20.10;;;12.30;;
65764;SDS011;52915;53.718;19.946;2023-04-24T19:20:09;25.30;;;14.40;;
65764;SDS011;52915;53.718;19.946;2023-04-24T19:25:14;20.00;;;12.50;;
65764;SDS011;52915;53.718;19.946;2023-04-24T19:30:18;20.70;;;12.20;;
65764;SDS011;52915;53.718;19.946;2023-04-24T19:35:22;20.50;;;12.40;;
65764;SDS011;52915;53.718;19.946;2023-04-24T19:40:26;15.20;;;11.90;;
65764;SDS011;52915;53.718;19.946;2023-04-24T19:45:31;20.00;;;11.40;;
65764;SDS011;52915;53.718;19.946;2023-04-24T19:50:35;18.60;;;11.30;;
65764;SDS011;52915;53.718;19.946;2023-04-24T19:55:39;11.50;;;9.80;;
65764;SDS011;52915;53.718;19.946;2023-04-24T20:00:43;13.20;;;10.10;;
65764;SDS011;52915;53.718;19.946;2023-04-24T20:05:47;18.10;;;9.70;;
65764;SDS011;52915;53.718;19.946;2023-04-24T20:10:51;11.10;;;9.60;;
65764;SDS011;52915;53.718;19.946;2023-04-24T20:15:57;13.60;;;9.30;;
65764;SDS011;52915;53.718;19.946;2023-04-24T20:40:23;12.30;;;8.60;;
65764;SDS011;52915;53.718;19.946;2023-04-24T20:45:31;9.00;;;8.10;;
65764;SDS011;52915;53.718;19.946;2023-04-24T20:50:35;13.30;;;8.40;;
65764;SDS011;52915;53.718;19.946;2023-04-24T20:55:44;11.20;;;8.30;;
65764;SDS011;52915;53.718;19.946;2023-04-24T21:15:02;12.50;;;9.30;;
65764;SDS011;52915;53.718;19.946;2023-04-24T21:24:42;15.80;;;8.80;;
65764;SDS011;52915;53.718;19.946;2023-04-24T21:29:46;11.40;;;8.80;;
65764;SDS011;52915;53.718;19.946;2023-04-24T21:34:56;19.40;;;10.50;;
65764;SDS011;52915;53.718;19.946;2023-04-24T21:40:02;100.60;;;37.40;;
65764;SDS011;52915;53.718;19.946;2023-04-24T21:45:09;29.80;;;14.00;;
65764;SDS011;52915;53.718;19.946;2023-04-24T21:50:13;15.70;;;10.00;;
65764;SDS011;52915;53.718;19.946;2023-04-24T21:55:19;12.90;;;10.20;;
65764;SDS011;52915;53.718;19.946;2023-04-24T22:00:24;17.40;;;9.50;;
65764;SDS011;52915;53.718;19.946;2023-04-24T22:05:34;9.90;;;8.20;;
65764;SDS011;52915;53.718;19.946;2023-04-24T22:10:37;9.00;;;8.10;;
65764;SDS011;52915;53.718;19.946;2023-04-24T22:28:53;12.60;;;9.50;;
65764;SDS011;52915;53.718;19.946;2023-04-24T22:33:57;11.10;;;9.10;;
65764;SDS011;52915;53.718;19.946;2023-04-24T22:39:27;12.30;;;10.00;;
65764;SDS011;52915;53.718;19.946;2023-04-24T22:44:31;15.90;;;9.60;;
65764;SDS011;52915;53.718;19.946;2023-04-24T22:49:35;12.40;;;8.80;;
65764;SDS011;52915;53.718;19.946;2023-04-24T22:54:40;16.50;;;12.60;;
65764;SDS011;52915;53.718;19.946;2023-04-24T23:14:26;20.90;;;11.70;;
65764;SDS011;52915;53.718;19.946;2023-04-24T23:30:29;24.70;;;15.90;;
65764;SDS011;52915;53.718;19.946;2023-04-24T23:35:33;22.10;;;13.90;;
65764;SDS011;52915;53.718;19.946;2023-04-24T23:40:38;24.80;;;14.10;;
65764;SDS011;52915;53.718;19.946;2023-04-24T23:45:42;22.00;;;13.30;;
65764;SDS011;52915;53.718;19.946;2023-04-24T23:50:54;17.00;;;12.90;;
65764;SDS011;52915;53.718;19.946;2023-04-24T23:55:58;22.80;;;14.80;;
